sensor_id;sensor_type;location;lat;lon;timestamp;P1;durP1;ratioP1;P2;durP2;ratioP2
38479;SDS011;62333;51.980;5.934;2023-08-01T00:00:12;2.75;;;1.42;;
38479;SDS011;62333;51.980;5.934;2023-08-01T00:02:38;4.40;;;2.40;;
38479;SDS011;62333;51.980;5.934;2023-08-01T00:05:04;2.60;;;1.67;;
38479;SDS011;62333;51.980;5.934;2023-08-01T00:07:30;3.78;;;1.30;;
38479;SDS011;62333;51.980;5.934;2023-08-01T00:09:55;3.17;;;2.00;;
38479;SDS011;62333;51.980;5.934;2023-08-01T00:12:21;2.25;;;1.00;;
38479;SDS011;62333;51.980;5.934;2023-08-01T00:14:48;3.55;;;1.65;;
38479;SDS011;62333;51.980;5.934;2023-08-01T00:17:14;2.88;;;1.42;;
38479;SDS011;62333;51.980;5.934;2023-08-01T00:19:40;3.22;;;1.50;;
38479;SDS011;62333;51.980;5.934;2023-08-01T00:22:05;3.42;;;2.00;;
38479;SDS011;62333;51.980;5.934;2023-08-01T00:24:31;3.58;;;1.48;;
38479;SDS011;62333;51.980;5.934;2023-08-01T00:26:56;3.47;;;1.67;;
38479;SDS011;62333;51.980;5.934;2023-08-01T00:29:22;2.65;;;1.30;;
38479;SDS011;62333;51.980;5.934;2023-08-01T00:31:48;2.92;;;1.10;;
38479;SDS011;62333;51.980;5.934;2023-08-01T00:34:14;4.57;;;1.30;;
38479;SDS011;62333;51.980;5.934;2023-08-01T00:36:40;5.28;;;2.08;;
38479;SDS011;62333;51.980;5.934;2023-08-01T00:39:05;3.60;;;0.98;;
38479;SDS011;62333;51.980;5.934;2023-08-01T00:41:31;1.85;;;0.77;;
38479;SDS011;62333;51.980;5.934;2023-08-01T00:43:57;2.97;;;0.75;;
38479;SDS011;62333;51.980;5.934;2023-08-01T00:46:22;2.92;;;0.60;;
38479;SDS011;62333;51.980;5.934;2023-08-01T00:48:49;1.73;;;0.68;;
38479;SDS011;62333;51.980;5.934;2023-08-01T00:51:15;1.88;;;0.45;;
38479;SDS011;62333;51.980;5.934;2023-08-01T00:53:43;3.03;;;1.08;;
38479;SDS011;62333;51.980;5.934;2023-08-01T00:56:10;4.03;;;0.98;;
38479;SDS011;62333;51.980;5.934;2023-08-01T00:58:36;1.65;;;0.43;;
38479;SDS011;62333;51.980;5.934;2023-08-01T01:01:02;1.50;;;0.40;;
38479;SDS011;62333;51.980;5.934;2023-08-01T01:03:28;2.70;;;0.70;;
38479;SDS011;62333;51.980;5.934;2023-08-01T01:06:02;3.40;;;0.55;;
38479;SDS011;62333;51.980;5.934;2023-08-01T01:08:36;3.25;;;0.50;;
38479;SDS011;62333;51.980;5.934;2023-08-01T01:11:02;2.92;;;0.70;;
38479;SDS011;62333;51.980;5.934;2023-08-01T01:13:29;1.92;;;0.88;;
38479;SDS011;62333;51.980;5.934;2023-08-01T01:15:55;5.13;;;1.10;;
38479;SDS011;62333;51.980;5.934;2023-08-01T01:18:20;4.43;;;0.65;;
38479;SDS011;62333;51.980;5.934;2023-08-01T01:20:46;2.50;;;0.95;;
38479;SDS011;62333;51.980;5.934;2023-08-01T01:23:12;2.72;;;0.93;;
38479;SDS011;62333;51.980;5.934;2023-08-01T01:25:37;1.88;;;0.50;;
38479;SDS011;62333;51.980;5.934;2023-08-01T01:28:05;2.40;;;0.70;;
38479;SDS011;62333;51.980;5.934;2023-08-01T01:30:32;3.75;;;0.85;;
38479;SDS011;62333;51.980;5.934;2023-08-01T01:32:59;2.70;;;0.80;;
38479;SDS011;62333;51.980;5.934;2023-08-01T01:35:28;3.78;;;1.00;;
38479;SDS011;62333;51.980;5.934;2023-08-01T01:37:55;3.05;;;0.70;;
38479;SDS011;62333;51.980;5.934;2023-08-01T01:40:20;2.72;;;0.95;;
38479;SDS011;62333;51.980;5.934;2023-08-01T01:42:46;2.67;;;1.02;;
38479;SDS011;62333;51.980;5.934;2023-08-01T01:45:14;2.67;;;0.90;;
38479;SDS011;62333;51.980;5.934;2023-08-01T01:47:39;3.45;;;1.00;;
38479;SDS011;62333;51.980;5.934;2023-08-01T01:50:05;2.50;;;0.82;;
38479;SDS011;62333;51.980;5.934;2023-08-01T01:52:31;3.75;;;1.30;;
38479;SDS011;62333;51.980;5.934;2023-08-01T01:54:58;3.38;;;1.10;;
38479;SDS011;62333;51.980;5.934;2023-08-01T01:57:24;3.65;;;0.95;;
38479;SDS011;62333;51.980;5.934;2023-08-01T01:59:49;3.90;;;1.73;;
38479;SDS011;62333;51.980;5.934;2023-08-01T02:02:15;4.93;;;1.45;;
38479;SDS011;62333;51.980;5.934;2023-08-01T02:04:41;2.88;;;0.95;;
38479;SDS011;62333;51.980;5.934;2023-08-01T02:07:06;3.88;;;1.58;;
38479;SDS011;62333;51.980;5.934;2023-08-01T02:09:33;3.80;;;1.38;;
38479;SDS011;62333;51.980;5.934;2023-08-01T02:11:58;2.85;;;1.08;;
38479;SDS011;62333;51.980;5.934;2023-08-01T02:14:24;3.17;;;1.42;;
38479;SDS011;62333;51.980;5.934;2023-08-01T02:16:50;3.55;;;1.92;;
38479;SDS011;62333;51.980;5.934;2023-08-01T02:19:15;3.67;;;1.88;;
38479;SDS011;62333;51.980;5.934;2023-08-01T02:21:41;3.83;;;1.23;;
38479;SDS011;62333;51.980;5.934;2023-08-01T02:24:06;2.42;;;1.15;;
38479;SDS011;62333;51.980;5.934;2023-08-01T02:26:32;6.60;;;2.30;;
38479;SDS011;62333;51.980;5.934;2023-08-01T02:28:58;4.30;;;1.80;;
38479;SDS011;62333;51.980;5.934;2023-08-01T02:31:23;3.40;;;1.50;;
38479;SDS011;62333;51.980;5.934;2023-08-01T02:33:49;5.18;;;1.23;;
38479;SDS011;62333;51.980;5.934;2023-08-01T02:36:15;4.50;;;1.42;;
38479;SDS011;62333;51.980;5.934;2023-08-01T02:38:40;4.05;;;1.63;;
38479;SDS011;62333;51.980;5.934;2023-08-01T02:41:06;3.88;;;1.10;;
38479;SDS011;62333;51.980;5.934;2023-08-01T02:43:32;4.25;;;1.42;;
38479;SDS011;62333;51.980;5.934;2023-08-01T02:45:58;3.95;;;2.13;;
38479;SDS011;62333;51.980;5.934;2023-08-01T02:48:25;2.42;;;0.80;;
38479;SDS011;62333;51.980;5.934;2023-08-01T02:50:51;3.40;;;1.00;;
38479;SDS011;62333;51.980;5.934;2023-08-01T02:53:16;5.03;;;1.60;;
38479;SDS011;62333;51.980;5.934;2023-08-01T02:55:43;4.90;;;1.50;;
38479;SDS011;62333;51.980;5.934;2023-08-01T02:58:11;6.15;;;2.00;;
38479;SDS011;62333;51.980;5.934;2023-08-01T03:00:37;6.32;;;2.42;;
38479;SDS011;62333;51.980;5.934;2023-08-01T03:03:05;5.00;;;1.65;;
38479;SDS011;62333;51.980;5.934;2023-08-01T03:05:31;3.13;;;1.30;;
38479;SDS011;62333;51.980;5.934;2023-08-01T03:07:57;5.10;;;1.77;;
38479;SDS011;62333;51.980;5.934;2023-08-01T03:10:22;5.05;;;1.95;;
38479;SDS011;62333;51.980;5.934;2023-08-01T03:12:48;6.57;;;2.40;;
38479;SDS011;62333;51.980;5.934;2023-08-01T03:15:14;5.47;;;1.80;;
38479;SDS011;62333;51.980;5.934;2023-08-01T03:17:39;6.32;;;2.35;;
38479;SDS011;62333;51.980;5.934;2023-08-01T03:20:05;4.20;;;2.08;;
38479;SDS011;62333;51.980;5.934;2023-08-01T03:22:35;2.75;;;1.42;;
38479;SDS011;62333;51.980;5.934;2023-08-01T03:25:03;6.65;;;2.00;;
38479;SDS011;62333;51.980;5.934;2023-08-01T03:27:32;4.82;;;2.08;;
38479;SDS011;62333;51.980;5.934;2023-08-01T03:30:01;3.38;;;1.73;;
38479;SDS011;62333;51.980;5.934;2023-08-01T03:32:27;5.25;;;1.50;;
38479;SDS011;62333;51.980;5.934;2023-08-01T03:34:53;7.07;;;2.15;;
38479;SDS011;62333;51.980;5.934;2023-08-01T03:37:18;7.25;;;2.38;;
38479;SDS011;62333;51.980;5.934;2023-08-01T03:39:44;4.57;;;2.15;;
38479;SDS011;62333;51.980;5.934;2023-08-01T03:42:10;6.45;;;2.78;;
38479;SDS011;62333;51.980;5.934;2023-08-01T03:44:36;10.20;;;2.45;;
38479;SDS011;62333;51.980;5.934;2023-08-01T03:47:01;9.70;;;2.42;;
38479;SDS011;62333;51.980;5.934;2023-08-01T03:49:27;7.03;;;2.17;;
38479;SDS011;62333;51.980;5.934;2023-08-01T03:51:53;7.47;;;1.92;;
38479;SDS011;62333;51.980;5.934;2023-08-01T03:54:18;12.10;;;3.58;;
38479;SDS011;62333;51.980;5.934;2023-08-01T03:56:44;5.43;;;2.50;;
38479;SDS011;62333;51.980;5.934;2023-08-01T03:59:11;10.25;;;2.95;;
38479;SDS011;62333;51.980;5.934;2023-08-01T04:01:38;10.02;;;2.72;;
38479;SDS011;62333;51.980;5.934;2023-08-01T04:04:04;7.38;;;2.65;;
38479;SDS011;62333;51.980;5.934;2023-08-01T04:06:30;4.03;;;1.05;;
38479;SDS011;62333;51.980;5.934;2023-08-01T04:08:55;6.03;;;2.10;;
38479;SDS011;62333;51.980;5.934;2023-08-01T04:11:25;6.82;;;2.90;;
38479;SDS011;62333;51.980;5.934;2023-08-01T04:13:51;12.95;;;2.63;;
38479;SDS011;62333;51.980;5.934;2023-08-01T04:16:19;9.20;;;2.20;;
38479;SDS011;62333;51.980;5.934;2023-08-01T04:18:45;10.68;;;3.83;;
38479;SDS011;62333;51.980;5.934;2023-08-01T04:21:11;6.18;;;1.77;;
38479;SDS011;62333;51.980;5.934;2023-08-01T04:23:38;6.65;;;2.30;;
38479;SDS011;62333;51.980;5.934;2023-08-01T04:26:04;6.85;;;2.10;;
38479;SDS011;62333;51.980;5.934;2023-08-01T04:28:31;7.05;;;2.10;;
38479;SDS011;62333;51.980;5.934;2023-08-01T04:30:57;11.38;;;3.72;;
38479;SDS011;62333;51.980;5.934;2023-08-01T04:33:22;6.45;;;1.92;;
38479;SDS011;62333;51.980;5.934;2023-08-01T04:35:48;5.97;;;2.10;;
38479;SDS011;62333;51.980;5.934;2023-08-01T04:38:14;10.35;;;3.78;;
38479;SDS011;62333;51.980;5.934;2023-08-01T04:40:40;7.45;;;3.03;;
38479;SDS011;62333;51.980;5.934;2023-08-01T04:43:05;12.90;;;3.85;;
38479;SDS011;62333;51.980;5.934;2023-08-01T04:45:31;6.70;;;2.28;;
38479;SDS011;62333;51.980;5.934;2023-08-01T04:47:57;11.55;;;2.72;;
38479;SDS011;62333;51.980;5.934;2023-08-01T04:50:22;7.80;;;1.23;;
38479;SDS011;62333;51.980;5.934;2023-08-01T04:52:48;12.45;;;3.15;;
38479;SDS011;62333;51.980;5.934;2023-08-01T04:55:14;6.80;;;2.05;;
38479;SDS011;62333;51.980;5.934;2023-08-01T04:57:39;6.70;;;2.22;;
38479;SDS011;62333;51.980;5.934;2023-08-01T05:00:05;6.63;;;2.58;;
38479;SDS011;62333;51.980;5.934;2023-08-01T05:02:31;4.00;;;2.00;;
38479;SDS011;62333;51.980;5.934;2023-08-01T05:04:57;6.82;;;2.50;;
38479;SDS011;62333;51.980;5.934;2023-08-01T05:07:22;6.63;;;2.60;;
38479;SDS011;62333;51.980;5.934;2023-08-01T05:09:48;5.57;;;2.30;;
38479;SDS011;62333;51.980;5.934;2023-08-01T05:12:13;4.28;;;1.63;;
38479;SDS011;62333;51.980;5.934;2023-08-01T05:14:39;5.22;;;1.85;;
38479;SDS011;62333;51.980;5.934;2023-08-01T05:17:05;8.38;;;2.63;;
38479;SDS011;62333;51.980;5.934;2023-08-01T05:19:31;11.20;;;2.78;;
38479;SDS011;62333;51.980;5.934;2023-08-01T05:21:56;10.40;;;2.50;;
38479;SDS011;62333;51.980;5.934;2023-08-01T05:24:22;7.25;;;1.98;;
38479;SDS011;62333;51.980;5.934;2023-08-01T05:26:48;4.82;;;1.45;;
38479;SDS011;62333;51.980;5.934;2023-08-01T05:29:13;4.25;;;1.73;;
38479;SDS011;62333;51.980;5.934;2023-08-01T05:31:39;7.85;;;2.90;;
38479;SDS011;62333;51.980;5.934;2023-08-01T05:34:05;9.20;;;3.53;;
38479;SDS011;62333;51.980;5.934;2023-08-01T05:36:30;4.85;;;2.78;;
38479;SDS011;62333;51.980;5.934;2023-08-01T05:38:56;8.75;;;2.40;;
38479;SDS011;62333;51.980;5.934;2023-08-01T05:41:22;11.35;;;3.63;;
38479;SDS011;62333;51.980;5.934;2023-08-01T05:43:48;8.27;;;3.15;;
38479;SDS011;62333;51.980;5.934;2023-08-01T05:46:15;5.88;;;3.08;;
38479;SDS011;62333;51.980;5.934;2023-08-01T05:48:40;10.10;;;4.15;;
38479;SDS011;62333;51.980;5.934;2023-08-01T05:51:06;8.95;;;3.17;;
38479;SDS011;62333;51.980;5.934;2023-08-01T05:53:32;9.48;;;3.58;;
38479;SDS011;62333;51.980;5.934;2023-08-01T05:55:57;5.38;;;2.80;;
38479;SDS011;62333;51.980;5.934;2023-08-01T05:58:23;9.45;;;2.78;;
38479;SDS011;62333;51.980;5.934;2023-08-01T06:00:49;8.88;;;4.40;;
38479;SDS011;62333;51.980;5.934;2023-08-01T06:03:15;6.85;;;3.03;;
38479;SDS011;62333;51.980;5.934;2023-08-01T06:05:41;10.02;;;2.80;;
38479;SDS011;62333;51.980;5.934;2023-08-01T06:08:07;3.63;;;2.00;;
38479;SDS011;62333;51.980;5.934;2023-08-01T06:10:33;7.97;;;3.55;;
38479;SDS011;62333;51.980;5.934;2023-08-01T06:12:59;6.20;;;2.28;;
38479;SDS011;62333;51.980;5.934;2023-08-01T06:15:25;7.85;;;2.42;;
38479;SDS011;62333;51.980;5.934;2023-08-01T06:17:51;6.40;;;2.25;;
38479;SDS011;62333;51.980;5.934;2023-08-01T06:20:16;5.47;;;1.65;;
38479;SDS011;62333;51.980;5.934;2023-08-01T06:22:42;6.00;;;2.35;;
38479;SDS011;62333;51.980;5.934;2023-08-01T06:25:08;6.22;;;1.70;;
38479;SDS011;62333;51.980;5.934;2023-08-01T06:27:34;6.53;;;2.55;;
38479;SDS011;62333;51.980;5.934;2023-08-01T06:30:00;6.85;;;2.70;;
38479;SDS011;62333;51.980;5.934;2023-08-01T06:32:26;5.35;;;1.83;;
38479;SDS011;62333;51.980;5.934;2023-08-01T06:34:51;10.00;;;3.42;;
38479;SDS011;62333;51.980;5.934;2023-08-01T06:37:17;5.22;;;1.67;;
38479;SDS011;62333;51.980;5.934;2023-08-01T06:39:43;7.45;;;3.33;;
38479;SDS011;62333;51.980;5.934;2023-08-01T06:42:08;7.35;;;3.05;;
38479;SDS011;62333;51.980;5.934;2023-08-01T06:44:34;9.13;;;3.35;;
38479;SDS011;62333;51.980;5.934;2023-08-01T06:47:00;7.50;;;3.05;;
38479;SDS011;62333;51.980;5.934;2023-08-01T06:49:25;7.30;;;2.63;;
38479;SDS011;62333;51.980;5.934;2023-08-01T06:51:51;7.30;;;2.88;;
38479;SDS011;62333;51.980;5.934;2023-08-01T06:54:17;7.30;;;2.13;;
38479;SDS011;62333;51.980;5.934;2023-08-01T06:56:42;5.65;;;2.03;;
38479;SDS011;62333;51.980;5.934;2023-08-01T06:59:13;5.90;;;2.40;;
38479;SDS011;62333;51.980;5.934;2023-08-01T07:01:39;6.75;;;1.83;;
38479;SDS011;62333;51.980;5.934;2023-08-01T07:04:08;5.95;;;1.90;;
38479;SDS011;62333;51.980;5.934;2023-08-01T07:06:34;3.28;;;1.27;;
38479;SDS011;62333;51.980;5.934;2023-08-01T07:08:59;5.45;;;1.42;;
38479;SDS011;62333;51.980;5.934;2023-08-01T07:11:25;11.68;;;3.08;;
38479;SDS011;62333;51.980;5.934;2023-08-01T07:13:51;7.60;;;1.80;;
38479;SDS011;62333;51.980;5.934;2023-08-01T07:16:16;5.85;;;2.17;;
38479;SDS011;62333;51.980;5.934;2023-08-01T07:18:42;5.75;;;2.50;;
38479;SDS011;62333;51.980;5.934;2023-08-01T07:21:08;4.97;;;2.58;;
38479;SDS011;62333;51.980;5.934;2023-08-01T07:23:34;6.03;;;1.55;;
38479;SDS011;62333;51.980;5.934;2023-08-01T07:26:00;9.27;;;2.92;;
38479;SDS011;62333;51.980;5.934;2023-08-01T07:28:26;12.80;;;2.20;;
38479;SDS011;62333;51.980;5.934;2023-08-01T07:30:59;5.68;;;2.30;;
38479;SDS011;62333;51.980;5.934;2023-08-01T07:33:29;6.55;;;1.67;;
38479;SDS011;62333;51.980;5.934;2023-08-01T07:35:55;6.22;;;1.48;;
38479;SDS011;62333;51.980;5.934;2023-08-01T07:38:20;9.85;;;1.65;;
38479;SDS011;62333;51.980;5.934;2023-08-01T07:40:46;4.20;;;1.65;;
38479;SDS011;62333;51.980;5.934;2023-08-01T07:43:12;6.25;;;1.30;;
38479;SDS011;62333;51.980;5.934;2023-08-01T07:45:38;6.63;;;1.50;;
38479;SDS011;62333;51.980;5.934;2023-08-01T07:48:04;7.93;;;2.08;;
38479;SDS011;62333;51.980;5.934;2023-08-01T07:50:30;5.00;;;0.90;;
38479;SDS011;62333;51.980;5.934;2023-08-01T07:52:55;4.15;;;1.10;;
38479;SDS011;62333;51.980;5.934;2023-08-01T07:55:22;4.15;;;1.00;;
38479;SDS011;62333;51.980;5.934;2023-08-01T07:57:48;4.22;;;1.50;;
38479;SDS011;62333;51.980;5.934;2023-08-01T08:00:13;3.33;;;0.98;;
38479;SDS011;62333;51.980;5.934;2023-08-01T08:02:42;9.00;;;1.52;;
38479;SDS011;62333;51.980;5.934;2023-08-01T08:05:10;4.53;;;0.82;;
38479;SDS011;62333;51.980;5.934;2023-08-01T08:07:36;5.18;;;1.75;;
38479;SDS011;62333;51.980;5.934;2023-08-01T08:10:02;3.47;;;1.40;;
38479;SDS011;62333;51.980;5.934;2023-08-01T08:12:29;4.50;;;1.15;;
38479;SDS011;62333;51.980;5.934;2023-08-01T08:14:54;5.38;;;1.40;;
38479;SDS011;62333;51.980;5.934;2023-08-01T08:17:20;3.80;;;0.77;;
38479;SDS011;62333;51.980;5.934;2023-08-01T08:19:46;3.88;;;1.15;;
38479;SDS011;62333;51.980;5.934;2023-08-01T08:22:12;9.00;;;1.27;;
38479;SDS011;62333;51.980;5.934;2023-08-01T08:24:37;6.40;;;1.40;;
38479;SDS011;62333;51.980;5.934;2023-08-01T08:27:03;4.80;;;1.00;;
38479;SDS011;62333;51.980;5.934;2023-08-01T08:29:29;7.00;;;1.58;;
38479;SDS011;62333;51.980;5.934;2023-08-01T08:31:56;3.47;;;1.35;;
38479;SDS011;62333;51.980;5.934;2023-08-01T08:34:22;3.22;;;1.30;;
38479;SDS011;62333;51.980;5.934;2023-08-01T08:36:48;3.47;;;1.05;;
38479;SDS011;62333;51.980;5.934;2023-08-01T08:39:15;4.95;;;1.02;;
38479;SDS011;62333;51.980;5.934;2023-08-01T08:41:51;4.95;;;1.00;;
38479;SDS011;62333;51.980;5.934;2023-08-01T08:44:18;5.80;;;1.48;;
38479;SDS011;62333;51.980;5.934;2023-08-01T08:46:52;5.45;;;2.10;;
38479;SDS011;62333;51.980;5.934;2023-08-01T08:49:19;7.32;;;1.35;;
38479;SDS011;62333;51.980;5.934;2023-08-01T08:51:47;5.82;;;1.45;;
38479;SDS011;62333;51.980;5.934;2023-08-01T08:54:13;2.35;;;1.02;;
38479;SDS011;62333;51.980;5.934;2023-08-01T08:56:41;5.18;;;1.50;;
38479;SDS011;62333;51.980;5.934;2023-08-01T08:59:07;8.52;;;2.35;;
38479;SDS011;62333;51.980;5.934;2023-08-01T09:01:35;2.10;;;0.60;;
38479;SDS011;62333;51.980;5.934;2023-08-01T09:04:01;4.13;;;1.80;;
38479;SDS011;62333;51.980;5.934;2023-08-01T09:06:28;4.82;;;0.80;;
38479;SDS011;62333;51.980;5.934;2023-08-01T09:11:49;3.78;;;0.80;;
38479;SDS011;62333;51.980;5.934;2023-08-01T09:14:16;5.13;;;1.10;;
38479;SDS011;62333;51.980;5.934;2023-08-01T09:16:43;6.65;;;1.05;;
38479;SDS011;62333;51.980;5.934;2023-08-01T09:19:09;3.88;;;1.02;;
38479;SDS011;62333;51.980;5.934;2023-08-01T09:21:38;5.38;;;1.23;;
38479;SDS011;62333;51.980;5.934;2023-08-01T09:24:11;5.07;;;0.95;;
38479;SDS011;62333;51.980;5.934;2023-08-01T09:26:41;2.72;;;1.17;;
38479;SDS011;62333;51.980;5.934;2023-08-01T09:29:08;2.63;;;0.90;;
38479;SDS011;62333;51.980;5.934;2023-08-01T09:31:35;2.10;;;0.52;;
38479;SDS011;62333;51.980;5.934;2023-08-01T09:34:04;3.67;;;0.70;;
38479;SDS011;62333;51.980;5.934;2023-08-01T09:36:31;3.63;;;0.70;;
38479;SDS011;62333;51.980;5.934;2023-08-01T09:38:57;4.13;;;0.82;;
38479;SDS011;62333;51.980;5.934;2023-08-01T09:41:24;3.63;;;0.95;;
38479;SDS011;62333;51.980;5.934;2023-08-01T09:43:50;2.03;;;0.70;;
38479;SDS011;62333;51.980;5.934;2023-08-01T09:46:16;4.20;;;0.45;;
38479;SDS011;62333;51.980;5.934;2023-08-01T09:48:42;2.45;;;0.75;;
38479;SDS011;62333;51.980;5.934;2023-08-01T09:58:47;3.92;;;1.13;;
38479;SDS011;62333;51.980;5.934;2023-08-01T10:01:14;2.58;;;0.85;;
38479;SDS011;62333;51.980;5.934;2023-08-01T10:03:44;11.70;;;1.38;;
38479;SDS011;62333;51.980;5.934;2023-08-01T10:06:19;2.75;;;0.43;;
38479;SDS011;62333;51.980;5.934;2023-08-01T10:08:46;2.03;;;0.60;;
38479;SDS011;62333;51.980;5.934;2023-08-01T10:11:17;2.42;;;0.43;;
38479;SDS011;62333;51.980;5.934;2023-08-01T10:13:45;3.40;;;0.60;;
38479;SDS011;62333;51.980;5.934;2023-08-01T10:16:12;4.88;;;1.05;;
38479;SDS011;62333;51.980;5.934;2023-08-01T10:18:38;2.85;;;0.95;;
38479;SDS011;62333;51.980;5.934;2023-08-01T10:21:08;3.42;;;0.70;;
38479;SDS011;62333;51.980;5.934;2023-08-01T10:23:36;3.45;;;0.90;;
38479;SDS011;62333;51.980;5.934;2023-08-01T10:26:06;4.10;;;1.08;;
38479;SDS011;62333;51.980;5.934;2023-08-01T10:28:34;4.88;;;0.98;;
38479;SDS011;62333;51.980;5.934;2023-08-01T10:31:08;5.72;;;1.40;;
38479;SDS011;62333;51.980;5.934;2023-08-01T10:33:38;3.13;;;0.60;;
38479;SDS011;62333;51.980;5.934;2023-08-01T10:36:18;2.40;;;0.60;;
38479;SDS011;62333;51.980;5.934;2023-08-01T10:38:52;3.92;;;0.90;;
38479;SDS011;62333;51.980;5.934;2023-08-01T10:43:52;4.00;;;0.93;;
38479;SDS011;62333;51.980;5.934;2023-08-01T10:46:53;1.65;;;0.35;;
38479;SDS011;62333;51.980;5.934;2023-08-01T10:49:19;2.75;;;1.05;;
38479;SDS011;62333;51.980;5.934;2023-08-01T10:51:49;4.57;;;0.88;;
38479;SDS011;62333;51.980;5.934;2023-08-01T10:54:24;2.05;;;0.50;;
38479;SDS011;62333;51.980;5.934;2023-08-01T10:56:51;2.92;;;0.80;;
38479;SDS011;62333;51.980;5.934;2023-08-01T10:59:18;2.42;;;0.60;;
38479;SDS011;62333;51.980;5.934;2023-08-01T11:01:45;1.10;;;0.50;;
38479;SDS011;62333;51.980;5.934;2023-08-01T11:04:15;5.78;;;0.60;;
38479;SDS011;62333;51.980;5.934;2023-08-01T11:06:43;6.68;;;1.73;;
38479;SDS011;62333;51.980;5.934;2023-08-01T11:09:31;4.43;;;1.35;;
38479;SDS011;62333;51.980;5.934;2023-08-01T11:11:57;2.35;;;0.50;;
38479;SDS011;62333;51.980;5.934;2023-08-01T11:14:27;3.03;;;0.80;;
38479;SDS011;62333;51.980;5.934;2023-08-01T11:16:54;3.50;;;0.85;;
38479;SDS011;62333;51.980;5.934;2023-08-01T11:19:23;2.90;;;0.77;;
38479;SDS011;62333;51.980;5.934;2023-08-01T11:21:54;1.98;;;0.50;;
38479;SDS011;62333;51.980;5.934;2023-08-01T11:24:25;2.67;;;0.50;;
38479;SDS011;62333;51.980;5.934;2023-08-01T11:26:52;2.03;;;0.73;;
38479;SDS011;62333;51.980;5.934;2023-08-01T11:29:19;4.43;;;1.88;;
38479;SDS011;62333;51.980;5.934;2023-08-01T11:31:55;6.10;;;3.75;;
38479;SDS011;62333;51.980;5.934;2023-08-01T11:34:23;4.68;;;2.22;;
38479;SDS011;62333;51.980;5.934;2023-08-01T11:36:49;4.60;;;1.58;;
38479;SDS011;62333;51.980;5.934;2023-08-01T11:39:15;7.05;;;1.30;;
38479;SDS011;62333;51.980;5.934;2023-08-01T11:41:42;4.88;;;0.57;;
38479;SDS011;62333;51.980;5.934;2023-08-01T11:44:08;3.42;;;0.45;;
38479;SDS011;62333;51.980;5.934;2023-08-01T11:46:36;2.60;;;0.60;;
38479;SDS011;62333;51.980;5.934;2023-08-01T11:49:03;3.38;;;0.70;;
38479;SDS011;62333;51.980;5.934;2023-08-01T11:51:30;1.63;;;0.50;;
38479;SDS011;62333;51.980;5.934;2023-08-01T11:54:08;3.28;;;0.60;;
38479;SDS011;62333;51.980;5.934;2023-08-01T11:56:36;4.97;;;1.17;;
38479;SDS011;62333;51.980;5.934;2023-08-01T12:01:42;3.35;;;1.50;;
38479;SDS011;62333;51.980;5.934;2023-08-01T12:04:09;4.05;;;1.42;;
38479;SDS011;62333;51.980;5.934;2023-08-01T12:06:35;3.67;;;0.60;;
38479;SDS011;62333;51.980;5.934;2023-08-01T12:09:10;1.95;;;0.32;;
38479;SDS011;62333;51.980;5.934;2023-08-01T12:11:37;1.85;;;0.40;;
38479;SDS011;62333;51.980;5.934;2023-08-01T12:14:08;3.10;;;0.50;;
38479;SDS011;62333;51.980;5.934;2023-08-01T12:16:35;1.55;;;0.30;;
38479;SDS011;62333;51.980;5.934;2023-08-01T12:19:02;3.97;;;0.52;;
38479;SDS011;62333;51.980;5.934;2023-08-01T12:21:28;1.15;;;0.45;;
38479;SDS011;62333;51.980;5.934;2023-08-01T12:23:57;1.08;;;0.30;;
38479;SDS011;62333;51.980;5.934;2023-08-01T12:26:23;3.70;;;0.65;;
38479;SDS011;62333;51.980;5.934;2023-08-01T12:28:49;3.22;;;0.70;;
38479;SDS011;62333;51.980;5.934;2023-08-01T12:31:15;3.03;;;1.23;;
38479;SDS011;62333;51.980;5.934;2023-08-01T12:33:42;5.47;;;1.88;;
38479;SDS011;62333;51.980;5.934;2023-08-01T12:36:08;1.90;;;0.43;;
38479;SDS011;62333;51.980;5.934;2023-08-01T12:38:34;3.92;;;1.25;;
38479;SDS011;62333;51.980;5.934;2023-08-01T12:41:00;3.42;;;0.60;;
38479;SDS011;62333;51.980;5.934;2023-08-01T12:43:26;3.38;;;0.80;;
38479;SDS011;62333;51.980;5.934;2023-08-01T12:45:52;4.32;;;0.93;;
38479;SDS011;62333;51.980;5.934;2023-08-01T12:48:18;4.38;;;1.70;;
38479;SDS011;62333;51.980;5.934;2023-08-01T12:50:47;3.45;;;1.00;;
38479;SDS011;62333;51.980;5.934;2023-08-01T12:53:13;3.47;;;1.17;;
38479;SDS011;62333;51.980;5.934;2023-08-01T12:55:42;2.63;;;0.40;;
38479;SDS011;62333;51.980;5.934;2023-08-01T12:58:08;4.32;;;1.33;;
38479;SDS011;62333;51.980;5.934;2023-08-01T13:00:34;2.50;;;0.40;;
38479;SDS011;62333;51.980;5.934;2023-08-01T13:02:59;2.50;;;0.68;;
38479;SDS011;62333;51.980;5.934;2023-08-01T13:05:25;4.93;;;1.10;;
38479;SDS011;62333;51.980;5.934;2023-08-01T13:07:51;8.23;;;1.10;;
38479;SDS011;62333;51.980;5.934;2023-08-01T13:10:16;2.85;;;0.40;;
38479;SDS011;62333;51.980;5.934;2023-08-01T13:12:42;4.10;;;1.15;;
38479;SDS011;62333;51.980;5.934;2023-08-01T13:15:08;4.25;;;0.70;;
38479;SDS011;62333;51.980;5.934;2023-08-01T13:17:34;1.85;;;0.50;;
38479;SDS011;62333;51.980;5.934;2023-08-01T13:20:00;4.05;;;0.70;;
38479;SDS011;62333;51.980;5.934;2023-08-01T13:22:25;4.22;;;0.88;;
38479;SDS011;62333;51.980;5.934;2023-08-01T13:24:51;2.95;;;0.50;;
38479;SDS011;62333;51.980;5.934;2023-08-01T13:27:17;3.28;;;0.75;;
38479;SDS011;62333;51.980;5.934;2023-08-01T13:29:42;3.33;;;0.60;;
38479;SDS011;62333;51.980;5.934;2023-08-01T13:32:08;3.70;;;0.40;;
38479;SDS011;62333;51.980;5.934;2023-08-01T13:34:34;2.47;;;0.45;;
38479;SDS011;62333;51.980;5.934;2023-08-01T13:36:59;3.35;;;1.30;;
38479;SDS011;62333;51.980;5.934;2023-08-01T13:39:25;5.68;;;2.30;;
38479;SDS011;62333;51.980;5.934;2023-08-01T13:41:51;3.05;;;0.88;;
38479;SDS011;62333;51.980;5.934;2023-08-01T13:44:16;2.72;;;0.93;;
38479;SDS011;62333;51.980;5.934;2023-08-01T13:46:42;3.22;;;0.82;;
38479;SDS011;62333;51.980;5.934;2023-08-01T13:49:07;2.97;;;0.47;;
38479;SDS011;62333;51.980;5.934;2023-08-01T13:51:33;2.83;;;0.40;;
38479;SDS011;62333;51.980;5.934;2023-08-01T13:53:59;2.97;;;0.45;;
38479;SDS011;62333;51.980;5.934;2023-08-01T13:56:25;3.67;;;1.13;;
38479;SDS011;62333;51.980;5.934;2023-08-01T13:58:51;1.52;;;0.40;;
38479;SDS011;62333;51.980;5.934;2023-08-01T14:01:17;3.55;;;0.40;;
38479;SDS011;62333;51.980;5.934;2023-08-01T14:03:44;1.85;;;0.43;;
38479;SDS011;62333;51.980;5.934;2023-08-01T14:06:12;3.40;;;1.02;;
38479;SDS011;62333;51.980;5.934;2023-08-01T14:08:38;1.98;;;0.70;;
38479;SDS011;62333;51.980;5.934;2023-08-01T14:11:06;1.98;;;0.73;;
38479;SDS011;62333;51.980;5.934;2023-08-01T14:13:34;6.35;;;1.63;;
38479;SDS011;62333;51.980;5.934;2023-08-01T14:16:00;3.28;;;1.10;;
38479;SDS011;62333;51.980;5.934;2023-08-01T14:18:29;4.47;;;1.83;;
38479;SDS011;62333;51.980;5.934;2023-08-01T14:20:55;3.92;;;1.48;;
38479;SDS011;62333;51.980;5.934;2023-08-01T14:23:21;3.95;;;1.17;;
38479;SDS011;62333;51.980;5.934;2023-08-01T14:25:47;3.58;;;0.70;;
38479;SDS011;62333;51.980;5.934;2023-08-01T14:28:13;2.78;;;0.63;;
38479;SDS011;62333;51.980;5.934;2023-08-01T14:30:39;1.52;;;0.35;;
38479;SDS011;62333;51.980;5.934;2023-08-01T14:33:06;2.00;;;0.52;;
38479;SDS011;62333;51.980;5.934;2023-08-01T14:35:36;0.73;;;0.25;;
38479;SDS011;62333;51.980;5.934;2023-08-01T14:38:03;2.78;;;0.60;;
38479;SDS011;62333;51.980;5.934;2023-08-01T14:40:29;1.90;;;0.52;;
38479;SDS011;62333;51.980;5.934;2023-08-01T14:42:55;3.05;;;0.57;;
38479;SDS011;62333;51.980;5.934;2023-08-01T14:45:21;2.10;;;0.75;;
38479;SDS011;62333;51.980;5.934;2023-08-01T14:47:47;4.82;;;1.95;;
38479;SDS011;62333;51.980;5.934;2023-08-01T14:50:14;5.78;;;1.02;;
38479;SDS011;62333;51.980;5.934;2023-08-01T14:52:40;2.10;;;0.43;;
38479;SDS011;62333;51.980;5.934;2023-08-01T14:55:06;1.42;;;0.60;;
38479;SDS011;62333;51.980;5.934;2023-08-01T14:57:33;3.08;;;0.60;;
38479;SDS011;62333;51.980;5.934;2023-08-01T14:59:59;2.28;;;0.55;;